Time;durP1;ratioP1;P1;durP2;ratioP2;P2;SDS_P1;SDS_P2;PMS_P1;PMS_P2;Temp;Humidity;BMP_temperature;BMP_pressure;BME280_temperature;BME280_humidity;BME280_pressure;Samples;Min_cycle;Max_cycle;Signal;HPM_P1;HPM_P2
2022/12/14 15:03:11;;;;;;;23.17;8.20;;;-3276.00;70.70;;;;;;5036336;27;2110151;-58
2022/12/14 15:05:39;;;;;;;22.02;8.00;;;-3275.90;71.40;;;;;;5089139;28;20043;-55
2022/12/14 15:08:29;;;;;;;19.02;7.72;;;-3276.00;71.10;;;;;;5090138;28;20379;-56
2022/12/14 15:10:55;;;;;;;;;;;-3276.10;71.00;;;;;;5090828;28;20028;-55
2022/12/14 15:13:28;;;;;;;19.30;8.32;;;-3276.10;70.70;;;;;;5090452;28;20406;-59
2022/12/14 15:15:55;;;;;;;19.58;8.27;;;-3276.10;70.70;;;;;;5078254;28;20427;-60
2022/12/14 15:18:23;;;;;;;19.50;7.68;;;-3276.10;70.60;;;;;;5068425;28;20045;-56
2022/12/14 15:21:13;;;;;;;15.38;8.73;;;-3276.00;70.80;;;;;;5069633;28;20036;-55
2022/12/14 15:23:41;;;;;;;14.30;7.95;;;-3276.00;71.10;;;;;;5060801;28;20059;-58
2022/12/14 15:26:23;;;;;;;14.43;7.57;;;-3276.00;71.20;;;;;;5069564;28;20147;-56
2022/12/14 15:28:59;;;;;;;17.52;7.95;;;-3275.90;71.30;;;;;;5068728;28;20021;-59
2022/12/14 15:31:34;;;;;;;15.50;9.07;;;-3275.90;71.10;;;;;;5068506;28;20056;-58
2022/12/14 15:34:01;;;;;;;19.98;7.63;;;-3275.90;71.10;;;;;;5069708;28;20028;-60
2022/12/14 15:36:33;;;;;;;15.15;7.53;;;-3275.90;70.90;;;;;;5069508;28;20055;-58
2022/12/14 15:38:59;;;;;;;16.98;8.60;;;-3275.80;71.10;;;;;;5069665;28;20036;-60
2022/12/14 15:41:28;;;;;;;26.02;6.97;;;-3275.70;71.20;;;;;;5069591;28;20021;-58
2022/12/14 15:43:55;;;;;;;15.40;7.97;;;-3275.70;71.30;;;;;;5068360;28;20017;-56
2022/12/14 15:46:32;;;;;;;14.88;8.75;;;-3275.70;71.20;;;;;;5068038;28;20472;-58
2022/12/14 15:49:02;;;;;;;15.65;7.30;;;-3275.70;71.20;;;;;;5069472;28;20102;-61
2022/12/14 15:51:46;;;;;;;18.77;7.50;;;-3275.70;71.20;;;;;;5067548;28;20036;-58
2022/12/14 15:54:19;;;;;;;13.98;8.27;;;-3275.70;71.20;;;;;;5069344;28;20043;-59
2022/12/14 15:56:48;;;;;;;16.58;8.25;;;-3275.70;71.20;;;;;;5069425;28;20025;-57
2022/12/14 15:59:30;;;;;;;17.98;8.02;;;-3275.70;71.30;;;;;;5067823;28;20029;-55
2022/12/14 16:02:02;;;;;;;12.00;7.00;;;-3275.60;71.40;;;;;;5068909;28;20044;-59
2022/12/14 16:04:29;;;;;;;13.10;8.27;;;-3275.60;71.40;;;;;;5069305;28;20025;-55
2022/12/14 16:07:02;;;;;;;18.02;7.75;;;-3275.60;71.60;;;;;;5069193;28;20029;-55
2022/12/14 16:09:59;;;;;;;15.73;8.20;;;-3275.60;71.70;;;;;;5069610;28;20055;-59
2022/12/14 16:12:43;;;;;;;16.00;8.60;;;-3275.50;72.20;;;;;;5061692;28;20083;-57
2022/12/14 16:15:19;;;;;;;22.98;7.70;;;-3275.40;72.50;;;;;;5054988;28;20027;-57
2022/12/14 16:17:45;;;;;;;15.68;8.07;;;-3275.40;72.80;;;;;;5055801;28;20029;-60
2022/12/14 16:20:28;;;;;;;13.30;7.32;;;-3275.30;73.10;;;;;;5055999;28;20036;-56
2022/12/14 16:23:11;;;;;;;14.63;7.70;;;-3275.20;73.30;;;;;;5054101;28;20040;-59
2022/12/14 16:25:54;;;;;;;15.80;8.40;;;-3275.20;73.70;;;;;;5055745;28;20381;-55
2022/12/14 16:28:27;;;;;;;15.10;7.70;;;-3275.20;73.50;;;;;;5054776;28;20112;-54
2022/12/14 16:31:05;;;;;;;17.48;9.45;;;-3275.30;73.50;;;;;;5056136;28;20017;-57
2022/12/14 16:33:35;;;;;;;16.45;8.65;;;-3275.20;73.60;;;;;;5055984;28;20507;-57
2022/12/14 16:36:03;;;;;;;16.85;7.68;;;-3275.20;73.90;;;;;;5054666;28;20455;-56
2022/12/14 16:38:30;;;;;;;24.63;9.15;;;-3275.10;74.30;;;;;;5055855;28;20025;-58
2022/12/14 16:41:00;;;;;;;19.13;8.85;;;-3275.00;74.80;;;;;;5055015;28;20017;-57
2022/12/14 16:43:36;;;;;;;;;;;-3275.00;74.90;;;;;;5058949;28;20025;-55
2022/12/14 16:46:02;;;;;;;19.13;9.63;;;-3275.00;75.20;;;;;;5055420;28;19904;-58
2022/12/14 16:48:29;;;;;;;13.00;7.18;;;-3275.00;75.30;;;;;;5054838;28;20161;-59
2022/12/14 16:51:21;;;;;;;26.70;9.05;;;-3274.90;75.50;;;;;;5055184;28;20025;-58
2022/12/14 16:53:50;;;;;;;22.00;9.82;;;-3274.90;75.70;;;;;;5054876;28;20021;-58
2022/12/14 16:56:20;;;;;;;18.95;10.43;;;-3274.90;75.80;;;;;;5054880;28;20188;-60
2022/12/14 16:59:01;;;;;;;25.67;9.98;;;-3274.80;76.00;;;;;;5054479;28;20024;-60
2022/12/14 17:01:27;;;;;;;20.33;10.98;;;-3274.80;76.10;;;;;;5052832;28;20044;-57
2022/12/14 17:04:04;;;;;;;25.38;11.48;;;-3275.00;75.90;;;;;;5054996;28;20040;-56
2022/12/14 17:06:43;;;;;;;20.05;10.25;;;-3274.90;75.30;;;;;;5054612;28;20503;-57
2022/12/14 17:09:17;;;;;;;20.75;9.70;;;-3274.90;75.50;;;;;;5054726;28;20025;-59
2022/12/14 17:11:43;;;;;;;22.75;10.60;;;-3274.80;75.50;;;;;;5055167;28;20025;-58
2022/12/14 17:14:09;;;;;;;19.77;11.43;;;-3274.80;75.80;;;;;;5054546;28;20029;-55
2022/12/14 17:16:35;;;;;;;18.08;9.93;;;-3274.70;75.80;;;;;;5054398;28;20090;-59
2022/12/14 17:19:03;;;;;;;19.52;7.97;;;-3274.70;76.00;;;;;;5054469;28;20043;-59
2022/12/14 17:21:29;;;;;;;19.83;8.82;;;-3274.70;76.50;;;;;;5054513;28;20029;-56
2022/12/14 17:23:55;;;;;;;21.05;9.95;;;-3274.70;77.00;;;;;;5054071;28;20098;-58
2022/12/14 17:26:24;;;;;;;16.58;9.25;;;-3274.60;77.00;;;;;;5053689;28;20040;-56
2022/12/14 17:28:50;;;;;;;20.60;9.15;;;-3274.50;77.40;;;;;;5054864;28;20017;-59
2022/12/14 17:31:19;;;;;;;18.17;8.93;;;-3274.40;77.60;;;;;;5054329;28;20028;-57
2022/12/14 17:33:44;;;;;;;13.75;8.30;;;-3274.40;78.00;;;;;;5053999;28;20025;-59
2022/12/14 17:36:10;;;;;;;16.95;9.07;;;-3274.20;78.30;;;;;;5054333;28;20480;-58
2022/12/14 17:39:14;;;;;;;18.13;9.52;;;-3274.20;78.60;;;;;;5053176;28;20508;-54
2022/12/14 17:41:46;;;;;;;13.73;8.52;;;-3274.10;78.50;;;;;;5054312;28;20040;-58
2022/12/14 17:44:19;;;;;;;26.25;9.20;;;-3274.00;79.10;;;;;;5052968;28;20025;-59
2022/12/14 17:46:47;;;;;;;17.90;8.68;;;-3274.00;79.10;;;;;;5052871;28;20053;-57
2022/12/14 17:49:14;;;;;;;20.60;10.68;;;-3274.00;79.10;;;;;;5054436;28;20021;-60
2022/12/14 17:51:44;;;;;;;33.30;15.13;;;-3273.90;79.00;;;;;;5053893;28;20484;-59
2022/12/14 17:54:15;;;;;;;37.28;15.90;;;-3273.90;79.30;;;;;;5054446;28;20025;-59
2022/12/14 17:56:47;;;;;;;28.23;13.18;;;-3274.00;79.30;;;;;;5054276;28;20079;-55
2022/12/14 17:59:13;;;;;;;33.72;12.80;;;-3273.90;79.20;;;;;;5053175;28;20029;-58
2022/12/14 18:01:39;;;;;;;32.10;12.35;;;-3274.00;79.50;;;;;;5053632;28;20404;-57
2022/12/14 18:04:05;;;;;;;25.52;12.57;;;-3273.90;79.40;;;;;;5053703;28;20079;-56
2022/12/14 18:06:30;;;;;;;29.63;11.23;;;-3273.90;79.70;;;;;;5053976;28;20377;-55
2022/12/14 18:08:56;;;;;;;19.50;11.40;;;-3273.90;80.10;;;;;;5053644;28;20419;-55
2022/12/14 18:11:25;;;;;;;22.73;12.75;;;-3273.80;80.10;;;;;;5053422;28;20044;-59
2022/12/14 18:13:52;;;;;;;25.55;12.63;;;-3273.70;80.30;;;;;;5053523;28;20024;-56
2022/12/14 18:16:20;;;;;;;31.67;14.63;;;-3273.80;80.60;;;;;;5053291;28;20033;-56
2022/12/14 18:18:45;;;;;;;26.55;12.27;;;-3274.10;80.70;;;;;;5053283;28;20090;-58
2022/12/14 18:21:14;;;;;;;34.40;14.02;;;-3274.00;80.10;;;;;;5053856;28;20024;-55
2022/12/14 18:23:39;;;;;;;23.25;11.85;;;-3274.20;80.40;;;;;;5053494;28;20073;-55
2022/12/14 18:26:05;;;;;;;25.15;13.82;;;-3274.20;80.10;;;;;;5053860;28;20036;-58
2022/12/14 18:28:31;;;;;;;29.30;14.30;;;-3274.10;80.00;;;;;;5052017;28;20036;-58
2022/12/14 18:31:01;;;;;;;34.00;17.15;;;-3274.00;80.20;;;;;;5051869;28;20021;-53
2022/12/14 18:33:27;;;;;;;31.35;15.48;;;-3273.90;80.30;;;;;;5053179;28;20465;-58
2022/12/14 18:35:54;;;;;;;37.60;16.80;;;-3273.90;80.70;;;;;;5051934;28;20483;-56
2022/12/14 18:38:21;;;;;;;30.40;14.80;;;-3273.80;80.70;;;;;;5053361;28;20380;-57
2022/12/14 18:40:49;;;;;;;39.83;17.52;;;-3273.80;80.90;;;;;;5053060;28;20032;-58
2022/12/14 18:43:20;;;;;;;30.27;16.00;;;-3273.80;81.30;;;;;;5053403;28;20491;-59
2022/12/14 18:45:46;;;;;;;39.95;18.20;;;-3273.70;81.20;;;;;;5053872;28;20457;-56
2022/12/14 18:48:12;;;;;;;36.55;17.60;;;-3273.70;81.40;;;;;;5051603;28;20080;-59
2022/12/14 18:50:39;;;;;;;42.05;17.52;;;-3273.50;81.70;;;;;;5053117;28;20025;-58
2022/12/14 18:53:06;;;;;;;38.35;16.85;;;-3273.40;81.90;;;;;;5053323;28;20017;-56
2022/12/14 18:55:32;;;;;;;34.03;17.25;;;-3273.30;82.30;;;;;;5051631;28;20032;-51
2022/12/14 18:58:00;;;;;;;32.85;17.30;;;-3273.50;82.90;;;;;;5053006;28;20051;-56
2022/12/14 19:00:33;;;;;;;36.92;18.63;;;-3273.50;82.10;;;;;;5053089;28;20096;-58
2022/12/14 19:03:01;;;;;;;40.05;20.67;;;-3273.50;82.40;;;;;;5052615;28;20127;-59
2022/12/14 19:05:27;;;;;;;39.83;20.42;;;-3273.40;82.50;;;;;;5053434;28;20485;-57
2022/12/14 19:07:54;;;;;;;46.03;21.23;;;-3273.40;82.80;;;;;;5052860;28;20377;-57
2022/12/14 19:10:22;;;;;;;41.55;20.15;;;-3273.40;82.90;;;;;;5052949;28;20025;-56
2022/12/14 19:12:49;;;;;;;35.10;20.13;;;-3273.40;82.90;;;;;;5053096;28;20029;-59
2022/12/14 19:15:28;;;;;;;48.25;21.67;;;-3273.50;82.80;;;;;;5052678;28;20029;-58
2022/12/14 19:17:54;;;;;;;38.17;18.47;;;-3273.40;82.80;;;;;;5053070;28;20037;-57
2022/12/14 19:20:21;;;;;;;35.30;18.63;;;-3273.30;82.90;;;;;;5053045;28;20024;-58
2022/12/14 19:22:47;;;;;;;31.02;17.05;;;-3273.50;83.30;;;;;;5052734;28;20025;-58
2022/12/14 19:25:14;;;;;;;35.38;17.23;;;-3273.50;83.00;;;;;;5052740;28;20052;-55
2022/12/14 19:27:41;;;;;;;39.42;19.85;;;-3273.50;82.90;;;;;;5051475;28;20025;-58
2022/12/14 19:30:10;;;;;;;35.47;17.52;;;-3273.50;82.90;;;;;;5035064;28;20112;-56
2022/12/14 19:32:36;;;;;;;31.23;16.42;;;-3273.30;82.80;;;;;;5051505;28;20025;-56
2022/12/14 19:35:03;;;;;;;39.78;19.27;;;-3273.20;82.90;;;;;;5053117;28;20076;-58
2022/12/14 19:37:29;;;;;;;34.75;16.50;;;-3273.10;83.20;;;;;;5051539;28;20488;-59
2022/12/14 19:39:57;;;;;;;35.13;19.02;;;-3273.20;83.40;;;;;;5052697;28;20063;-55
2022/12/14 19:42:23;;;;;;;33.90;16.73;;;-3273.20;83.60;;;;;;5051348;28;20037;-57
2022/12/14 19:44:48;;;;;;;38.95;18.98;;;-3273.10;83.30;;;;;;5052758;28;20096;-56
2022/12/14 19:47:14;;;;;;;40.22;17.88;;;-3273.10;83.60;;;;;;5051714;28;20021;-56
2022/12/14 19:49:40;;;;;;;36.95;18.35;;;-3273.10;83.70;;;;;;5055672;28;20128;-59
2022/12/14 19:52:06;;;;;;;42.40;18.67;;;-3273.20;83.50;;;;;;5056352;28;20036;-56
2022/12/14 19:54:38;;;;;;;45.13;21.95;;;-3273.10;83.40;;;;;;5056789;28;20100;-59
2022/12/14 19:57:06;;;;;;;40.38;21.08;;;-3273.20;83.40;;;;;;5055255;28;20029;-57
2022/12/14 19:59:33;;;;;;;51.25;22.48;;;-3273.20;83.50;;;;;;5057010;28;20365;-54
2022/12/14 20:02:01;;;;;;;37.53;19.35;;;-3273.20;83.50;;;;;;5054767;28;20052;-57
2022/12/14 20:04:27;;;;;;;40.00;19.13;;;-3273.10;83.50;;;;;;5054916;28;20068;-59
2022/12/14 20:06:53;;;;;;;37.38;15.93;;;-3273.00;83.80;;;;;;5054938;28;20135;-54
2022/12/14 20:09:19;;;;;;;40.15;18.48;;;-3272.90;83.90;;;;;;5054849;28;20036;-54
2022/12/14 20:11:45;;;;;;;40.28;16.30;;;-3272.80;84.20;;;;;;5054682;28;20025;-57
2022/12/14 20:14:12;;;;;;;40.55;15.20;;;-3272.80;84.30;;;;;;5056020;28;20033;-58
2022/12/14 20:16:38;;;;;;;43.10;18.65;;;-3272.70;84.30;;;;;;5054586;28;20059;-57
2022/12/14 20:19:05;;;;;;;32.47;16.52;;;-3272.70;84.60;;;;;;5054718;28;20116;-57
2022/12/14 20:21:32;;;;;;;35.83;17.00;;;-3272.70;84.70;;;;;;5054598;28;20028;-58
2022/12/14 20:24:00;;;;;;;38.33;18.45;;;-3272.70;84.90;;;;;;5038284;28;20553;-57
2022/12/14 20:26:27;;;;;;;47.90;18.77;;;-3272.70;85.00;;;;;;5055872;28;20075;-58
2022/12/14 20:28:56;;;;;;;36.70;17.83;;;-3272.70;85.00;;;;;;5054586;28;20366;-59
2022/12/14 20:31:22;;;;;;;37.75;19.90;;;-3272.70;85.00;;;;;;5055904;28;20369;-56
2022/12/14 20:33:49;;;;;;;52.28;24.88;;;-3272.70;85.10;;;;;;5056179;28;20040;-57
2022/12/14 20:36:17;;;;;;;50.50;23.33;;;-3272.70;85.10;;;;;;5054367;28;20028;-58
2022/12/14 20:38:43;;;;;;;52.08;24.48;;;-3272.70;85.20;;;;;;5054503;28;20159;-57
2022/12/14 20:41:12;;;;;;;56.47;25.15;;;-3272.70;85.20;;;;;;5055454;28;20036;-56
2022/12/14 20:43:40;;;;;;;51.30;24.45;;;-3272.60;85.30;;;;;;5054190;28;20029;-58
2022/12/14 20:46:21;;;;;;;47.83;22.92;;;-3272.70;85.60;;;;;;5055426;28;20025;-57
2022/12/14 20:48:47;;;;;;;57.38;24.38;;;-3272.70;85.50;;;;;;5055438;28;20028;-56
2022/12/14 20:51:13;;;;;;;48.33;22.45;;;-3272.70;85.60;;;;;;5054037;28;20540;-52
2022/12/14 20:53:38;;;;;;;42.92;21.45;;;-3272.80;85.40;;;;;;5055353;28;20546;-58
2022/12/14 20:56:04;;;;;;;46.58;22.13;;;-3272.70;84.90;;;;;;5055799;28;20021;-57
2022/12/14 20:58:30;;;;;;;46.67;21.40;;;-3272.70;85.20;;;;;;5055362;28;20078;-58
